sensor_id;sensor_type;location;lat;lon;timestamp;P1;durP1;ratioP1;P2;durP2;ratioP2
28022;SDS011;67403;50.104;8.758;2023-03-01T00:00:03;14.20;;;6.63;;
28022;SDS011;67403;50.104;8.758;2023-03-01T00:02:33;15.52;;;6.82;;
28022;SDS011;67403;50.104;8.758;2023-03-01T00:05:00;20.27;;;9.10;;
28022;SDS011;67403;50.104;8.758;2023-03-01T00:07:27;11.88;;;6.30;;
28022;SDS011;67403;50.104;8.758;2023-03-01T00:09:54;14.20;;;6.65;;
28022;SDS011;67403;50.104;8.758;2023-03-01T00:12:21;15.02;;;7.43;;
28022;SDS011;67403;50.104;8.758;2023-03-01T00:14:48;12.82;;;6.97;;
28022;SDS011;67403;50.104;8.758;2023-03-01T00:17:15;15.35;;;7.38;;
28022;SDS011;67403;50.104;8.758;2023-03-01T00:19:43;13.63;;;6.55;;
28022;SDS011;67403;50.104;8.758;2023-03-01T00:22:10;17.42;;;6.47;;
28022;SDS011;67403;50.104;8.758;2023-03-01T00:24:37;11.13;;;6.53;;
28022;SDS011;67403;50.104;8.758;2023-03-01T00:27:04;15.13;;;6.95;;
28022;SDS011;67403;50.104;8.758;2023-03-01T00:29:31;16.63;;;7.10;;
28022;SDS011;67403;50.104;8.758;2023-03-01T00:31:58;13.68;;;6.55;;
28022;SDS011;67403;50.104;8.758;2023-03-01T00:34:25;13.60;;;7.22;;
28022;SDS011;67403;50.104;8.758;2023-03-01T00:36:53;15.98;;;6.50;;
28022;SDS011;67403;50.104;8.758;2023-03-01T00:39:20;16.45;;;6.50;;
28022;SDS011;67403;50.104;8.758;2023-03-01T00:41:47;15.45;;;6.38;;
28022;SDS011;67403;50.104;8.758;2023-03-01T00:44:14;15.68;;;7.63;;
28022;SDS011;67403;50.104;8.758;2023-03-01T00:46:41;14.60;;;6.60;;
28022;SDS011;67403;50.104;8.758;2023-03-01T00:49:08;14.25;;;6.95;;
28022;SDS011;67403;50.104;8.758;2023-03-01T00:51:35;16.40;;;7.88;;
28022;SDS011;67403;50.104;8.758;2023-03-01T00:54:03;16.10;;;7.00;;
28022;SDS011;67403;50.104;8.758;2023-03-01T00:56:30;14.73;;;7.63;;
28022;SDS011;67403;50.104;8.758;2023-03-01T00:58:58;15.77;;;7.38;;
28022;SDS011;67403;50.104;8.758;2023-03-01T01:01:25;15.68;;;6.78;;
28022;SDS011;67403;50.104;8.758;2023-03-01T01:03:56;14.38;;;6.57;;
28022;SDS011;67403;50.104;8.758;2023-03-01T01:06:24;13.73;;;6.10;;
28022;SDS011;67403;50.104;8.758;2023-03-01T01:08:52;14.90;;;6.80;;
28022;SDS011;67403;50.104;8.758;2023-03-01T01:11:22;15.15;;;6.45;;
28022;SDS011;67403;50.104;8.758;2023-03-01T01:13:50;13.10;;;6.68;;
28022;SDS011;67403;50.104;8.758;2023-03-01T01:16:18;12.07;;;6.93;;
28022;SDS011;67403;50.104;8.758;2023-03-01T01:18:47;16.47;;;6.73;;
28022;SDS011;67403;50.104;8.758;2023-03-01T01:21:14;18.02;;;8.25;;
28022;SDS011;67403;50.104;8.758;2023-03-01T01:23:43;16.60;;;7.05;;
28022;SDS011;67403;50.104;8.758;2023-03-01T01:26:12;13.05;;;5.53;;
28022;SDS011;67403;50.104;8.758;2023-03-01T01:28:41;13.48;;;6.47;;
28022;SDS011;67403;50.104;8.758;2023-03-01T01:31:09;14.38;;;6.88;;
28022;SDS011;67403;50.104;8.758;2023-03-01T01:33:36;14.90;;;7.90;;
28022;SDS011;67403;50.104;8.758;2023-03-01T01:36:04;19.20;;;7.90;;
28022;SDS011;67403;50.104;8.758;2023-03-01T01:38:32;13.13;;;6.30;;
28022;SDS011;67403;50.104;8.758;2023-03-01T01:40:59;15.85;;;8.00;;
28022;SDS011;67403;50.104;8.758;2023-03-01T01:43:26;14.32;;;7.40;;
28022;SDS011;67403;50.104;8.758;2023-03-01T01:45:57;18.97;;;7.73;;
28022;SDS011;67403;50.104;8.758;2023-03-01T01:48:28;22.67;;;8.27;;
28022;SDS011;67403;50.104;8.758;2023-03-01T01:51:06;13.27;;;7.10;;
28022;SDS011;67403;50.104;8.758;2023-03-01T01:53:36;10.00;;;6.35;;
28022;SDS011;67403;50.104;8.758;2023-03-01T01:56:05;14.05;;;6.20;;
28022;SDS011;67403;50.104;8.758;2023-03-01T01:58:34;16.30;;;8.32;;
28022;SDS011;67403;50.104;8.758;2023-03-01T02:01:04;18.63;;;7.18;;
28022;SDS011;67403;50.104;8.758;2023-03-01T02:03:32;10.68;;;6.40;;
28022;SDS011;67403;50.104;8.758;2023-03-01T02:06:10;18.85;;;8.35;;
28022;SDS011;67403;50.104;8.758;2023-03-01T02:08:41;11.88;;;6.65;;
28022;SDS011;67403;50.104;8.758;2023-03-01T02:11:08;17.67;;;8.80;;
28022;SDS011;67403;50.104;8.758;2023-03-01T02:13:39;18.20;;;7.68;;
28022;SDS011;67403;50.104;8.758;2023-03-01T02:16:09;10.55;;;6.78;;
28022;SDS011;67403;50.104;8.758;2023-03-01T02:18:37;12.82;;;7.10;;
28022;SDS011;67403;50.104;8.758;2023-03-01T02:21:08;17.58;;;7.63;;
28022;SDS011;67403;50.104;8.758;2023-03-01T02:23:49;13.20;;;6.55;;
28022;SDS011;67403;50.104;8.758;2023-03-01T02:26:18;17.05;;;7.03;;
28022;SDS011;67403;50.104;8.758;2023-03-01T02:28:51;14.43;;;7.15;;
28022;SDS011;67403;50.104;8.758;2023-03-01T02:31:19;15.05;;;6.57;;
28022;SDS011;67403;50.104;8.758;2023-03-01T02:34:04;13.80;;;7.10;;
28022;SDS011;67403;50.104;8.758;2023-03-01T02:36:34;15.57;;;6.47;;
28022;SDS011;67403;50.104;8.758;2023-03-01T02:39:03;15.35;;;6.80;;
28022;SDS011;67403;50.104;8.758;2023-03-01T02:41:33;15.18;;;7.22;;
28022;SDS011;67403;50.104;8.758;2023-03-01T02:44:04;19.98;;;7.45;;
28022;SDS011;67403;50.104;8.758;2023-03-01T02:46:31;17.33;;;7.68;;
28022;SDS011;67403;50.104;8.758;2023-03-01T02:48:58;12.25;;;6.72;;
28022;SDS011;67403;50.104;8.758;2023-03-01T02:51:28;14.43;;;7.30;;
28022;SDS011;67403;50.104;8.758;2023-03-01T02:54:08;16.10;;;7.38;;
28022;SDS011;67403;50.104;8.758;2023-03-01T02:56:41;14.20;;;7.55;;
28022;SDS011;67403;50.104;8.758;2023-03-01T02:59:14;23.70;;;7.40;;
28022;SDS011;67403;50.104;8.758;2023-03-01T03:01:42;16.02;;;7.03;;
28022;SDS011;67403;50.104;8.758;2023-03-01T03:04:11;12.68;;;7.38;;
28022;SDS011;67403;50.104;8.758;2023-03-01T03:06:42;15.57;;;6.32;;
28022;SDS011;67403;50.104;8.758;2023-03-01T03:09:09;14.32;;;7.25;;
28022;SDS011;67403;50.104;8.758;2023-03-01T03:11:36;16.50;;;8.90;;
28022;SDS011;67403;50.104;8.758;2023-03-01T03:14:04;18.13;;;8.85;;
28022;SDS011;67403;50.104;8.758;2023-03-01T03:16:40;15.48;;;8.00;;
28022;SDS011;67403;50.104;8.758;2023-03-01T03:19:08;20.90;;;7.57;;
28022;SDS011;67403;50.104;8.758;2023-03-01T03:21:35;18.60;;;7.97;;
28022;SDS011;67403;50.104;8.758;2023-03-01T03:24:03;17.80;;;8.63;;
28022;SDS011;67403;50.104;8.758;2023-03-01T03:26:30;15.55;;;7.35;;
28022;SDS011;67403;50.104;8.758;2023-03-01T03:28:58;21.13;;;7.63;;
28022;SDS011;67403;50.104;8.758;2023-03-01T03:31:24;16.75;;;7.70;;
28022;SDS011;67403;50.104;8.758;2023-03-01T03:33:53;16.08;;;7.35;;
28022;SDS011;67403;50.104;8.758;2023-03-01T03:36:21;16.77;;;8.15;;
28022;SDS011;67403;50.104;8.758;2023-03-01T03:38:49;17.63;;;8.60;;
28022;SDS011;67403;50.104;8.758;2023-03-01T03:41:17;12.60;;;6.03;;
28022;SDS011;67403;50.104;8.758;2023-03-01T03:43:44;14.27;;;7.85;;
28022;SDS011;67403;50.104;8.758;2023-03-01T03:46:11;20.77;;;7.85;;
28022;SDS011;67403;50.104;8.758;2023-03-01T03:48:39;13.32;;;7.15;;
28022;SDS011;67403;50.104;8.758;2023-03-01T03:51:09;16.17;;;6.63;;
28022;SDS011;67403;50.104;8.758;2023-03-01T03:53:37;15.82;;;7.18;;
28022;SDS011;67403;50.104;8.758;2023-03-01T03:56:04;18.98;;;7.70;;
28022;SDS011;67403;50.104;8.758;2023-03-01T03:58:32;15.05;;;7.80;;
28022;SDS011;67403;50.104;8.758;2023-03-01T04:00:59;18.15;;;8.07;;
28022;SDS011;67403;50.104;8.758;2023-03-01T04:03:27;19.35;;;7.93;;
28022;SDS011;67403;50.104;8.758;2023-03-01T04:05:56;16.48;;;7.10;;
28022;SDS011;67403;50.104;8.758;2023-03-01T04:08:25;23.73;;;8.80;;
28022;SDS011;67403;50.104;8.758;2023-03-01T04:10:56;17.83;;;8.40;;
28022;SDS011;67403;50.104;8.758;2023-03-01T04:13:44;21.98;;;6.97;;
28022;SDS011;67403;50.104;8.758;2023-03-01T04:16:31;17.77;;;7.57;;
28022;SDS011;67403;50.104;8.758;2023-03-01T04:19:18;14.18;;;8.13;;
28022;SDS011;67403;50.104;8.758;2023-03-01T04:21:59;16.33;;;8.20;;
28022;SDS011;67403;50.104;8.758;2023-03-01T04:24:53;19.88;;;8.23;;
28022;SDS011;67403;50.104;8.758;2023-03-01T04:27:20;27.10;;;9.15;;
28022;SDS011;67403;50.104;8.758;2023-03-01T04:29:47;17.83;;;7.32;;
28022;SDS011;67403;50.104;8.758;2023-03-01T04:32:14;19.17;;;7.55;;
28022;SDS011;67403;50.104;8.758;2023-03-01T04:34:41;19.45;;;8.68;;
28022;SDS011;67403;50.104;8.758;2023-03-01T04:37:08;15.70;;;7.53;;
28022;SDS011;67403;50.104;8.758;2023-03-01T04:39:35;18.25;;;7.90;;
28022;SDS011;67403;50.104;8.758;2023-03-01T04:42:11;23.95;;;8.68;;
28022;SDS011;67403;50.104;8.758;2023-03-01T04:44:38;19.00;;;9.23;;
28022;SDS011;67403;50.104;8.758;2023-03-01T04:47:05;15.02;;;8.52;;
28022;SDS011;67403;50.104;8.758;2023-03-01T04:49:32;18.73;;;8.57;;
28022;SDS011;67403;50.104;8.758;2023-03-01T04:51:59;19.27;;;8.18;;
28022;SDS011;67403;50.104;8.758;2023-03-01T04:54:27;16.30;;;8.40;;
28022;SDS011;67403;50.104;8.758;2023-03-01T04:56:54;20.02;;;9.30;;
28022;SDS011;67403;50.104;8.758;2023-03-01T04:59:23;17.17;;;8.35;;
28022;SDS011;67403;50.104;8.758;2023-03-01T05:01:50;17.75;;;7.43;;
28022;SDS011;67403;50.104;8.758;2023-03-01T05:04:17;15.98;;;8.07;;
28022;SDS011;67403;50.104;8.758;2023-03-01T05:06:44;15.48;;;7.80;;
28022;SDS011;67403;50.104;8.758;2023-03-01T05:09:11;20.52;;;9.07;;
28022;SDS011;67403;50.104;8.758;2023-03-01T05:11:37;17.33;;;7.45;;
28022;SDS011;67403;50.104;8.758;2023-03-01T05:14:05;19.80;;;7.78;;
28022;SDS011;67403;50.104;8.758;2023-03-01T05:16:34;18.92;;;8.60;;
28022;SDS011;67403;50.104;8.758;2023-03-01T05:19:02;12.68;;;7.10;;
28022;SDS011;67403;50.104;8.758;2023-03-01T05:21:36;21.92;;;7.82;;
28022;SDS011;67403;50.104;8.758;2023-03-01T05:24:23;20.48;;;9.05;;
28022;SDS011;67403;50.104;8.758;2023-03-01T05:26:50;21.08;;;9.88;;
28022;SDS011;67403;50.104;8.758;2023-03-01T05:29:18;22.60;;;9.65;;
28022;SDS011;67403;50.104;8.758;2023-03-01T05:31:52;13.40;;;6.85;;
28022;SDS011;67403;50.104;8.758;2023-03-01T05:34:22;15.47;;;7.93;;
28022;SDS011;67403;50.104;8.758;2023-03-01T05:36:50;15.07;;;7.00;;
28022;SDS011;67403;50.104;8.758;2023-03-01T05:39:18;22.98;;;8.43;;
28022;SDS011;67403;50.104;8.758;2023-03-01T05:41:47;22.83;;;8.90;;
28022;SDS011;67403;50.104;8.758;2023-03-01T05:44:14;13.80;;;8.13;;
28022;SDS011;67403;50.104;8.758;2023-03-01T05:46:41;22.55;;;7.75;;
28022;SDS011;67403;50.104;8.758;2023-03-01T05:49:09;22.27;;;9.05;;
28022;SDS011;67403;50.104;8.758;2023-03-01T05:51:36;18.60;;;7.60;;
28022;SDS011;67403;50.104;8.758;2023-03-01T05:54:03;17.45;;;8.75;;
28022;SDS011;67403;50.104;8.758;2023-03-01T05:56:32;21.85;;;9.15;;
28022;SDS011;67403;50.104;8.758;2023-03-01T05:58:59;22.25;;;8.55;;
28022;SDS011;67403;50.104;8.758;2023-03-01T06:01:26;17.90;;;8.13;;
28022;SDS011;67403;50.104;8.758;2023-03-01T06:03:53;19.65;;;8.52;;
28022;SDS011;67403;50.104;8.758;2023-03-01T06:06:21;19.10;;;8.88;;
28022;SDS011;67403;50.104;8.758;2023-03-01T06:08:49;16.33;;;7.45;;
28022;SDS011;67403;50.104;8.758;2023-03-01T06:11:16;18.80;;;9.15;;
28022;SDS011;67403;50.104;8.758;2023-03-01T06:13:43;18.33;;;9.07;;
28022;SDS011;67403;50.104;8.758;2023-03-01T06:16:10;20.08;;;9.73;;
28022;SDS011;67403;50.104;8.758;2023-03-01T06:18:37;19.75;;;8.25;;
28022;SDS011;67403;50.104;8.758;2023-03-01T06:21:05;34.78;;;8.02;;
28022;SDS011;67403;50.104;8.758;2023-03-01T06:23:34;17.48;;;8.63;;
28022;SDS011;67403;50.104;8.758;2023-03-01T06:26:04;15.82;;;8.52;;
28022;SDS011;67403;50.104;8.758;2023-03-01T06:28:32;20.15;;;9.43;;
28022;SDS011;67403;50.104;8.758;2023-03-01T06:30:59;17.52;;;8.52;;
28022;SDS011;67403;50.104;8.758;2023-03-01T06:33:25;15.63;;;7.55;;
28022;SDS011;67403;50.104;8.758;2023-03-01T06:35:53;19.02;;;7.78;;
28022;SDS011;67403;50.104;8.758;2023-03-01T06:38:21;20.48;;;8.65;;
28022;SDS011;67403;50.104;8.758;2023-03-01T06:40:52;17.67;;;8.15;;
28022;SDS011;67403;50.104;8.758;2023-03-01T06:43:21;25.02;;;8.77;;
28022;SDS011;67403;50.104;8.758;2023-03-01T06:45:49;16.98;;;7.90;;
28022;SDS011;67403;50.104;8.758;2023-03-01T06:48:16;13.88;;;7.68;;
28022;SDS011;67403;50.104;8.758;2023-03-01T06:50:42;17.02;;;7.50;;
28022;SDS011;67403;50.104;8.758;2023-03-01T06:53:09;19.58;;;9.00;;
28022;SDS011;67403;50.104;8.758;2023-03-01T06:55:36;16.05;;;8.38;;
28022;SDS011;67403;50.104;8.758;2023-03-01T06:58:05;16.58;;;7.50;;
28022;SDS011;67403;50.104;8.758;2023-03-01T07:00:32;23.35;;;8.18;;
28022;SDS011;67403;50.104;8.758;2023-03-01T07:02:59;17.45;;;7.97;;
28022;SDS011;67403;50.104;8.758;2023-03-01T07:05:27;19.42;;;9.10;;
28022;SDS011;67403;50.104;8.758;2023-03-01T07:07:54;18.52;;;8.13;;
28022;SDS011;67403;50.104;8.758;2023-03-01T07:10:21;16.70;;;8.55;;
28022;SDS011;67403;50.104;8.758;2023-03-01T07:12:49;19.38;;;9.20;;
28022;SDS011;67403;50.104;8.758;2023-03-01T07:15:17;18.27;;;8.80;;
28022;SDS011;67403;50.104;8.758;2023-03-01T07:17:44;16.80;;;9.13;;
28022;SDS011;67403;50.104;8.758;2023-03-01T07:20:13;20.15;;;9.18;;
28022;SDS011;67403;50.104;8.758;2023-03-01T07:22:40;16.40;;;8.65;;
28022;SDS011;67403;50.104;8.758;2023-03-01T07:25:08;19.85;;;8.52;;
28022;SDS011;67403;50.104;8.758;2023-03-01T07:27:35;18.38;;;8.45;;
28022;SDS011;67403;50.104;8.758;2023-03-01T07:30:03;19.23;;;8.75;;
28022;SDS011;67403;50.104;8.758;2023-03-01T07:32:32;19.55;;;8.05;;
28022;SDS011;67403;50.104;8.758;2023-03-01T07:34:59;18.08;;;8.50;;
28022;SDS011;67403;50.104;8.758;2023-03-01T07:37:26;20.70;;;9.20;;
28022;SDS011;67403;50.104;8.758;2023-03-01T07:39:53;23.48;;;9.43;;
28022;SDS011;67403;50.104;8.758;2023-03-01T07:42:20;23.00;;;8.27;;
28022;SDS011;67403;50.104;8.758;2023-03-01T07:44:46;21.00;;;9.15;;
28022;SDS011;67403;50.104;8.758;2023-03-01T07:47:13;17.00;;;9.07;;
28022;SDS011;67403;50.104;8.758;2023-03-01T07:49:42;22.23;;;9.30;;
28022;SDS011;67403;50.104;8.758;2023-03-01T07:52:09;23.08;;;8.82;;
28022;SDS011;67403;50.104;8.758;2023-03-01T07:54:37;24.38;;;9.25;;
28022;SDS011;67403;50.104;8.758;2023-03-01T07:57:04;23.15;;;8.70;;
28022;SDS011;67403;50.104;8.758;2023-03-01T07:59:31;19.90;;;9.02;;
28022;SDS011;67403;50.104;8.758;2023-03-01T08:01:58;15.85;;;7.32;;
28022;SDS011;67403;50.104;8.758;2023-03-01T08:04:25;24.45;;;8.93;;
28022;SDS011;67403;50.104;8.758;2023-03-01T08:06:54;24.40;;;9.20;;
28022;SDS011;67403;50.104;8.758;2023-03-01T08:09:21;22.52;;;9.38;;
28022;SDS011;67403;50.104;8.758;2023-03-01T08:11:48;26.08;;;9.77;;
28022;SDS011;67403;50.104;8.758;2023-03-01T08:14:15;23.60;;;8.68;;
28022;SDS011;67403;50.104;8.758;2023-03-01T08:16:42;19.23;;;8.50;;
28022;SDS011;67403;50.104;8.758;2023-03-01T08:19:10;20.48;;;9.52;;
28022;SDS011;67403;50.104;8.758;2023-03-01T08:21:38;17.15;;;8.75;;
28022;SDS011;67403;50.104;8.758;2023-03-01T08:24:07;24.25;;;9.35;;
28022;SDS011;67403;50.104;8.758;2023-03-01T08:26:35;23.57;;;9.83;;
28022;SDS011;67403;50.104;8.758;2023-03-01T08:29:03;19.10;;;9.05;;
28022;SDS011;67403;50.104;8.758;2023-03-01T08:31:30;23.15;;;9.95;;
28022;SDS011;67403;50.104;8.758;2023-03-01T08:34:01;16.45;;;8.20;;
28022;SDS011;67403;50.104;8.758;2023-03-01T08:36:31;22.80;;;8.95;;
28022;SDS011;67403;50.104;8.758;2023-03-01T08:41:29;19.42;;;8.98;;
28022;SDS011;67403;50.104;8.758;2023-03-01T08:43:56;17.83;;;7.88;;
28022;SDS011;67403;50.104;8.758;2023-03-01T08:46:25;23.73;;;9.85;;
28022;SDS011;67403;50.104;8.758;2023-03-01T08:48:52;19.85;;;9.98;;
28022;SDS011;67403;50.104;8.758;2023-03-01T08:51:19;19.20;;;8.60;;
28022;SDS011;67403;50.104;8.758;2023-03-01T08:53:47;24.60;;;9.02;;
28022;SDS011;67403;50.104;8.758;2023-03-01T08:56:14;19.02;;;9.27;;
28022;SDS011;67403;50.104;8.758;2023-03-01T08:58:44;24.20;;;10.30;;
28022;SDS011;67403;50.104;8.758;2023-03-01T09:01:13;18.75;;;9.18;;
28022;SDS011;67403;50.104;8.758;2023-03-01T09:03:41;18.42;;;8.65;;
28022;SDS011;67403;50.104;8.758;2023-03-01T09:06:09;21.83;;;10.05;;
28022;SDS011;67403;50.104;8.758;2023-03-01T09:08:36;16.48;;;8.63;;
28022;SDS011;67403;50.104;8.758;2023-03-01T09:11:05;19.65;;;8.48;;
28022;SDS011;67403;50.104;8.758;2023-03-01T09:13:33;24.23;;;9.48;;
28022;SDS011;67403;50.104;8.758;2023-03-01T09:16:02;19.15;;;9.45;;
28022;SDS011;67403;50.104;8.758;2023-03-01T09:18:31;22.15;;;8.82;;
28022;SDS011;67403;50.104;8.758;2023-03-01T09:21:01;18.42;;;8.30;;
28022;SDS011;67403;50.104;8.758;2023-03-01T09:23:32;19.98;;;9.45;;
28022;SDS011;67403;50.104;8.758;2023-03-01T09:25:59;24.42;;;9.05;;
28022;SDS011;67403;50.104;8.758;2023-03-01T09:28:26;22.48;;;8.82;;
28022;SDS011;67403;50.104;8.758;2023-03-01T09:30:53;22.27;;;9.35;;
28022;SDS011;67403;50.104;8.758;2023-03-01T09:33:21;20.63;;;9.30;;
28022;SDS011;67403;50.104;8.758;2023-03-01T09:35:48;17.13;;;8.32;;
28022;SDS011;67403;50.104;8.758;2023-03-01T09:38:15;25.05;;;10.18;;
28022;SDS011;67403;50.104;8.758;2023-03-01T09:40:42;18.92;;;8.60;;
28022;SDS011;67403;50.104;8.758;2023-03-01T09:43:15;21.15;;;9.05;;
28022;SDS011;67403;50.104;8.758;2023-03-01T09:45:47;19.13;;;9.48;;
28022;SDS011;67403;50.104;8.758;2023-03-01T09:48:18;19.73;;;8.77;;
28022;SDS011;67403;50.104;8.758;2023-03-01T09:50:50;22.10;;;8.73;;
28022;SDS011;67403;50.104;8.758;2023-03-01T09:53:18;21.85;;;9.43;;
28022;SDS011;67403;50.104;8.758;2023-03-01T09:55:48;26.92;;;10.85;;
28022;SDS011;67403;50.104;8.758;2023-03-01T09:58:28;16.05;;;8.02;;
28022;SDS011;67403;50.104;8.758;2023-03-01T10:01:03;26.13;;;9.68;;
28022;SDS011;67403;50.104;8.758;2023-03-01T10:03:44;21.60;;;10.20;;
28022;SDS011;67403;50.104;8.758;2023-03-01T10:06:27;21.40;;;9.70;;
28022;SDS011;67403;50.104;8.758;2023-03-01T10:08:55;23.90;;;10.25;;
28022;SDS011;67403;50.104;8.758;2023-03-01T10:11:25;22.20;;;9.98;;
28022;SDS011;67403;50.104;8.758;2023-03-01T10:13:58;20.50;;;10.38;;
28022;SDS011;67403;50.104;8.758;2023-03-01T10:16:33;21.48;;;10.35;;
28022;SDS011;67403;50.104;8.758;2023-03-01T10:19:09;26.17;;;10.38;;
28022;SDS011;67403;50.104;8.758;2023-03-01T10:21:43;21.92;;;9.90;;
28022;SDS011;67403;50.104;8.758;2023-03-01T10:24:12;19.98;;;10.27;;
28022;SDS011;67403;50.104;8.758;2023-03-01T10:26:45;24.00;;;10.50;;
28022;SDS011;67403;50.104;8.758;2023-03-01T10:29:19;21.55;;;10.70;;
28022;SDS011;67403;50.104;8.758;2023-03-01T10:31:52;24.02;;;10.68;;
28022;SDS011;67403;50.104;8.758;2023-03-01T10:34:20;26.80;;;11.50;;
28022;SDS011;67403;50.104;8.758;2023-03-01T10:36:55;25.20;;;10.55;;
28022;SDS011;67403;50.104;8.758;2023-03-01T10:39:24;22.20;;;11.30;;
28022;SDS011;67403;50.104;8.758;2023-03-01T10:41:56;25.55;;;12.70;;
28022;SDS011;67403;50.104;8.758;2023-03-01T10:44:38;21.90;;;11.85;;
28022;SDS011;67403;50.104;8.758;2023-03-01T10:47:12;20.05;;;11.52;;
28022;SDS011;67403;50.104;8.758;2023-03-01T10:49:52;26.35;;;11.27;;
28022;SDS011;67403;50.104;8.758;2023-03-01T10:52:23;22.98;;;11.80;;
28022;SDS011;67403;50.104;8.758;2023-03-01T10:54:53;17.92;;;10.90;;
28022;SDS011;67403;50.104;8.758;2023-03-01T10:57:27;18.38;;;11.38;;
28022;SDS011;67403;50.104;8.758;2023-03-01T11:00:01;19.83;;;11.32;;
28022;SDS011;67403;50.104;8.758;2023-03-01T11:02:41;19.23;;;9.70;;
28022;SDS011;67403;50.104;8.758;2023-03-01T11:05:15;17.80;;;9.82;;
28022;SDS011;67403;50.104;8.758;2023-03-01T11:07:51;18.30;;;10.40;;
28022;SDS011;67403;50.104;8.758;2023-03-01T11:10:21;19.10;;;10.65;;
28022;SDS011;67403;50.104;8.758;2023-03-01T11:12:50;17.70;;;9.75;;
28022;SDS011;67403;50.104;8.758;2023-03-01T11:15:23;21.67;;;10.75;;
28022;SDS011;67403;50.104;8.758;2023-03-01T11:17:52;21.02;;;11.57;;
28022;SDS011;67403;50.104;8.758;2023-03-01T11:20:24;17.60;;;9.48;;
28022;SDS011;67403;50.104;8.758;2023-03-01T11:22:54;20.90;;;11.10;;
28022;SDS011;67403;50.104;8.758;2023-03-01T11:25:25;19.30;;;10.52;;
28022;SDS011;67403;50.104;8.758;2023-03-01T11:27:54;18.95;;;10.32;;
28022;SDS011;67403;50.104;8.758;2023-03-01T11:30:23;15.05;;;10.13;;
28022;SDS011;67403;50.104;8.758;2023-03-01T11:33:01;15.18;;;9.57;;
28022;SDS011;67403;50.104;8.758;2023-03-01T11:35:35;15.85;;;9.07;;
28022;SDS011;67403;50.104;8.758;2023-03-01T11:38:09;15.07;;;8.73;;
28022;SDS011;67403;50.104;8.758;2023-03-01T11:40:44;15.98;;;9.02;;
28022;SDS011;67403;50.104;8.758;2023-03-01T11:43:15;12.77;;;8.48;;
28022;SDS011;67403;50.104;8.758;2023-03-01T11:45:53;14.80;;;9.07;;
28022;SDS011;67403;50.104;8.758;2023-03-01T11:48:42;13.68;;;9.18;;
28022;SDS011;67403;50.104;8.758;2023-03-01T11:51:19;12.25;;;7.97;;
28022;SDS011;67403;50.104;8.758;2023-03-01T11:53:56;13.23;;;7.90;;
28022;SDS011;67403;50.104;8.758;2023-03-01T11:56:32;14.13;;;8.85;;
28022;SDS011;67403;50.104;8.758;2023-03-01T12:02:26;11.85;;;7.75;;
28022;SDS011;67403;50.104;8.758;2023-03-01T12:05:20;15.45;;;8.75;;
28022;SDS011;67403;50.104;8.758;2023-03-01T12:07:58;15.68;;;9.38;;
28022;SDS011;67403;50.104;8.758;2023-03-01T12:10:35;13.93;;;9.18;;
28022;SDS011;67403;50.104;8.758;2023-03-01T12:13:23;18.48;;;11.35;;
28022;SDS011;67403;50.104;8.758;2023-03-01T12:16:20;15.25;;;9.60;;
28022;SDS011;67403;50.104;8.758;2023-03-01T12:19:00;13.90;;;8.48;;
28022;SDS011;67403;50.104;8.758;2023-03-01T12:21:39;14.60;;;8.52;;
28022;SDS011;67403;50.104;8.758;2023-03-01T12:27:12;15.50;;;8.95;;
28022;SDS011;67403;50.104;8.758;2023-03-01T12:29:52;13.38;;;8.77;;
28022;SDS011;67403;50.104;8.758;2023-03-01T12:32:31;15.30;;;8.93;;
28022;SDS011;67403;50.104;8.758;2023-03-01T12:37:59;14.43;;;7.93;;
28022;SDS011;67403;50.104;8.758;2023-03-01T12:40:46;12.75;;;8.60;;
28022;SDS011;67403;50.104;8.758;2023-03-01T12:43:33;11.32;;;8.23;;
28022;SDS011;67403;50.104;8.758;2023-03-01T12:46:13;13.75;;;8.02;;
28022;SDS011;67403;50.104;8.758;2023-03-01T12:48:49;12.80;;;7.78;;
28022;SDS011;67403;50.104;8.758;2023-03-01T12:51:26;14.13;;;7.82;;
28022;SDS011;67403;50.104;8.758;2023-03-01T12:53:57;11.23;;;7.80;;
28022;SDS011;67403;50.104;8.758;2023-03-01T12:56:28;14.23;;;8.27;;
28022;SDS011;67403;50.104;8.758;2023-03-01T12:59:01;14.40;;;8.75;;
28022;SDS011;67403;50.104;8.758;2023-03-01T13:01:36;12.52;;;8.82;;
28022;SDS011;67403;50.104;8.758;2023-03-01T13:07:04;13.07;;;7.78;;
28022;SDS011;67403;50.104;8.758;2023-03-01T13:09:44;11.23;;;7.75;;
28022;SDS011;67403;50.104;8.758;2023-03-01T13:15:29;13.32;;;7.15;;
28022;SDS011;67403;50.104;8.758;2023-03-01T13:17:58;14.02;;;8.13;;
28022;SDS011;67403;50.104;8.758;2023-03-01T13:20:29;12.43;;;7.10;;
28022;SDS011;67403;50.104;8.758;2023-03-01T13:23:03;10.60;;;7.15;;
28022;SDS011;67403;50.104;8.758;2023-03-01T13:25:33;12.45;;;6.55;;
28022;SDS011;67403;50.104;8.758;2023-03-01T13:31:04;10.35;;;6.57;;
28022;SDS011;67403;50.104;8.758;2023-03-01T13:33:42;11.93;;;6.78;;
28022;SDS011;67403;50.104;8.758;2023-03-01T13:36:10;11.10;;;6.38;;
28022;SDS011;67403;50.104;8.758;2023-03-01T13:39:01;13.40;;;7.75;;
28022;SDS011;67403;50.104;8.758;2023-03-01T13:44:20;10.98;;;7.10;;
28022;SDS011;67403;50.104;8.758;2023-03-01T13:46:58;12.73;;;6.80;;
28022;SDS011;67403;50.104;8.758;2023-03-01T13:49:31;9.85;;;7.40;;
28022;SDS011;67403;50.104;8.758;2023-03-01T13:52:13;10.75;;;7.00;;
28022;SDS011;67403;50.104;8.758;2023-03-01T13:55:00;11.70;;;7.13;;
28022;SDS011;67403;50.104;8.758;2023-03-01T13:57:32;8.60;;;7.00;;
28022;SDS011;67403;50.104;8.758;2023-03-01T14:00:00;13.77;;;6.95;;
28022;SDS011;67403;50.104;8.758;2023-03-01T14:02:29;9.57;;;6.10;;
28022;SDS011;67403;50.104;8.758;2023-03-01T14:04:56;10.00;;;6.68;;
28022;SDS011;67403;50.104;8.758;2023-03-01T14:07:24;13.70;;;8.02;;
28022;SDS011;67403;50.104;8.758;2023-03-01T14:09:55;11.90;;;7.68;;
28022;SDS011;67403;50.104;8.758;2023-03-01T14:12:33;15.20;;;7.47;;
28022;SDS011;67403;50.104;8.758;2023-03-01T14:15:14;14.85;;;6.93;;
28022;SDS011;67403;50.104;8.758;2023-03-01T14:20:30;9.93;;;6.53;;
28022;SDS011;67403;50.104;8.758;2023-03-01T14:23:08;11.65;;;6.75;;
28022;SDS011;67403;50.104;8.758;2023-03-01T14:25:38;12.30;;;7.72;;
28022;SDS011;67403;50.104;8.758;2023-03-01T14:28:14;10.23;;;6.88;;
28022;SDS011;67403;50.104;8.758;2023-03-01T14:30:44;11.93;;;6.68;;
28022;SDS011;67403;50.104;8.758;2023-03-01T14:33:21;13.07;;;6.70;;
28022;SDS011;67403;50.104;8.758;2023-03-01T14:35:54;11.98;;;7.47;;
28022;SDS011;67403;50.104;8.758;2023-03-01T14:38:22;13.13;;;7.60;;
28022;SDS011;67403;50.104;8.758;2023-03-01T14:40:55;14.93;;;7.65;;
28022;SDS011;67403;50.104;8.758;2023-03-01T14:43:25;11.98;;;7.40;;
28022;SDS011;67403;50.104;8.758;2023-03-01T14:45:52;11.65;;;6.78;;
28022;SDS011;67403;50.104;8.758;2023-03-01T14:48:20;13.02;;;7.45;;
28022;SDS011;67403;50.104;8.758;2023-03-01T14:50:48;12.07;;;7.53;;
28022;SDS011;67403;50.104;8.758;2023-03-01T14:53:16;12.55;;;7.22;;
28022;SDS011;67403;50.104;8.758;2023-03-01T14:55:46;11.65;;;6.65;;
28022;SDS011;67403;50.104;8.758;2023-03-01T14:58:17;12.80;;;7.30;;
28022;SDS011;67403;50.104;8.758;2023-03-01T15:00:47;11.20;;;6.65;;
28022;SDS011;67403;50.104;8.758;2023-03-01T15:03:17;12.23;;;6.97;;
28022;SDS011;67403;50.104;8.758;2023-03-01T15:05:50;12.43;;;7.47;;
28022;SDS011;67403;50.104;8.758;2023-03-01T15:08:18;13.85;;;7.53;;
28022;SDS011;67403;50.104;8.758;2023-03-01T15:10:57;14.07;;;7.38;;
28022;SDS011;67403;50.104;8.758;2023-03-01T15:13:28;15.15;;;7.90;;
28022;SDS011;67403;50.104;8.758;2023-03-01T15:16:01;15.95;;;7.90;;
28022;SDS011;67403;50.104;8.758;2023-03-01T15:18:33;13.35;;;7.95;;